sensor_id;sensor_type;location;lat;lon;timestamp;temperature;humidity
80824;SHT35;70538;59.122;37.876;2023-11-19T00:02:27;-5.78;74.18
80824;SHT35;70538;59.122;37.876;2023-11-19T00:04:54;-5.81;74.24
80824;SHT35;70538;59.122;37.876;2023-11-19T00:07:22;-5.78;74.43
80824;SHT35;70538;59.122;37.876;2023-11-19T00:09:56;-5.78;74.45
80824;SHT35;70538;59.122;37.876;2023-11-19T00:12:23;-5.75;74.63
80824;SHT35;70538;59.122;37.876;2023-11-19T00:14:51;-5.73;74.48
80824;SHT35;70538;59.122;37.876;2023-11-19T00:17:20;-5.68;74.38
80824;SHT35;70538;59.122;37.876;2023-11-19T00:19:47;-5.70;74.09
80824;SHT35;70538;59.122;37.876;2023-11-19T00:22:16;-5.71;74.11
80824;SHT35;70538;59.122;37.876;2023-11-19T00:24:43;-5.71;74.34
80824;SHT35;70538;59.122;37.876;2023-11-19T00:27:11;-5.67;74.35
80824;SHT35;70538;59.122;37.876;2023-11-19T00:29:39;-5.68;74.54
80824;SHT35;70538;59.122;37.876;2023-11-19T00:32:06;-5.66;74.57
80824;SHT35;70538;59.122;37.876;2023-11-19T00:34:34;-5.70;74.54
80824;SHT35;70538;59.122;37.876;2023-11-19T00:37:02;-5.67;74.60
80824;SHT35;70538;59.122;37.876;2023-11-19T00:39:31;-5.70;74.64
80824;SHT35;70538;59.122;37.876;2023-11-19T00:41:58;-5.70;74.70
80824;SHT35;70538;59.122;37.876;2023-11-19T00:44:25;-5.74;74.54
80824;SHT35;70538;59.122;37.876;2023-11-19T00:46:53;-5.75;74.53
80824;SHT35;70538;59.122;37.876;2023-11-19T00:49:20;-5.77;74.48
80824;SHT35;70538;59.122;37.876;2023-11-19T00:51:47;-5.81;74.56
80824;SHT35;70538;59.122;37.876;2023-11-19T00:54:14;-5.81;74.63
80824;SHT35;70538;59.122;37.876;2023-11-19T00:56:42;-5.82;74.65
80824;SHT35;70538;59.122;37.876;2023-11-19T00:59:09;-5.81;74.77
80824;SHT35;70538;59.122;37.876;2023-11-19T01:01:36;-5.85;74.74
80824;SHT35;70538;59.122;37.876;2023-11-19T01:04:04;-5.85;74.92
80824;SHT35;70538;59.122;37.876;2023-11-19T01:06:32;-5.85;74.94
80824;SHT35;70538;59.122;37.876;2023-11-19T01:08:59;-5.82;75.01
80824;SHT35;70538;59.122;37.876;2023-11-19T01:11:27;-5.82;75.23
80824;SHT35;70538;59.122;37.876;2023-11-19T01:13:55;-5.73;75.30
80824;SHT35;70538;59.122;37.876;2023-11-19T01:16:22;-5.67;75.19
80824;SHT35;70538;59.122;37.876;2023-11-19T01:18:50;-5.59;74.97
80824;SHT35;70538;59.122;37.876;2023-11-19T01:21:21;-5.57;74.69
80824;SHT35;70538;59.122;37.876;2023-11-19T01:23:49;-5.56;74.62
80824;SHT35;70538;59.122;37.876;2023-11-19T01:26:16;-5.50;74.61
80824;SHT35;70538;59.122;37.876;2023-11-19T01:28:43;-5.50;74.33
80824;SHT35;70538;59.122;37.876;2023-11-19T01:31:15;-5.47;74.15
80824;SHT35;70538;59.122;37.876;2023-11-19T01:33:42;-5.51;73.49
80824;SHT35;70538;59.122;37.876;2023-11-19T01:36:12;-5.60;73.46
80824;SHT35;70538;59.122;37.876;2023-11-19T01:38:40;-5.63;73.64
80824;SHT35;70538;59.122;37.876;2023-11-19T01:41:07;-5.63;73.69
80824;SHT35;70538;59.122;37.876;2023-11-19T01:43:39;-5.66;73.77
80824;SHT35;70538;59.122;37.876;2023-11-19T01:46:08;-5.66;73.63
80824;SHT35;70538;59.122;37.876;2023-11-19T01:48:41;-5.70;73.79
80824;SHT35;70538;59.122;37.876;2023-11-19T01:51:09;-5.68;73.83
80824;SHT35;70538;59.122;37.876;2023-11-19T01:53:38;-5.70;73.87
80824;SHT35;70538;59.122;37.876;2023-11-19T01:56:07;-5.70;74.02
80824;SHT35;70538;59.122;37.876;2023-11-19T01:58:37;-5.74;74.12
80824;SHT35;70538;59.122;37.876;2023-11-19T02:01:06;-5.70;74.33
80824;SHT35;70538;59.122;37.876;2023-11-19T02:03:34;-5.66;74.38
80824;SHT35;70538;59.122;37.876;2023-11-19T02:06:02;-5.66;74.49
80824;SHT35;70538;59.122;37.876;2023-11-19T02:08:30;-5.63;74.48
80824;SHT35;70538;59.122;37.876;2023-11-19T02:10:58;-5.64;74.44
80824;SHT35;70538;59.122;37.876;2023-11-19T02:13:27;-5.61;74.47
80824;SHT35;70538;59.122;37.876;2023-11-19T02:15:56;-5.57;74.43
80824;SHT35;70538;59.122;37.876;2023-11-19T02:18:24;-5.56;74.47
80824;SHT35;70538;59.122;37.876;2023-11-19T02:20:55;-5.50;74.31
80824;SHT35;70538;59.122;37.876;2023-11-19T02:23:23;-5.50;73.90
80824;SHT35;70538;59.122;37.876;2023-11-19T02:28:36;-5.51;73.87
80824;SHT35;70538;59.122;37.876;2023-11-19T02:31:04;-5.49;73.98
80824;SHT35;70538;59.122;37.876;2023-11-19T02:33:32;-5.44;73.88
80824;SHT35;70538;59.122;37.876;2023-11-19T02:35:59;-5.43;73.70
80824;SHT35;70538;59.122;37.876;2023-11-19T02:38:27;-5.44;73.54
80824;SHT35;70538;59.122;37.876;2023-11-19T02:40:55;-5.43;73.43
80824;SHT35;70538;59.122;37.876;2023-11-19T02:43:22;-5.42;73.41
80824;SHT35;70538;59.122;37.876;2023-11-19T02:45:50;-5.43;73.34
80824;SHT35;70538;59.122;37.876;2023-11-19T02:48:18;-5.43;73.21
80824;SHT35;70538;59.122;37.876;2023-11-19T02:50:45;-5.46;72.74
80824;SHT35;70538;59.122;37.876;2023-11-19T02:53:14;-5.46;72.73
80824;SHT35;70538;59.122;37.876;2023-11-19T02:55:41;-5.49;72.82
80824;SHT35;70538;59.122;37.876;2023-11-19T02:58:15;-5.43;72.88
80824;SHT35;70538;59.122;37.876;2023-11-19T03:00:50;-5.44;72.60
80824;SHT35;70538;59.122;37.876;2023-11-19T03:03:25;-5.43;72.63
80824;SHT35;70538;59.122;37.876;2023-11-19T03:05:58;-5.37;72.52
80824;SHT35;70538;59.122;37.876;2023-11-19T03:08:25;-5.36;72.26
80824;SHT35;70538;59.122;37.876;2023-11-19T03:10:52;-5.40;71.98
80824;SHT35;70538;59.122;37.876;2023-11-19T03:13:21;-5.44;72.01
80824;SHT35;70538;59.122;37.876;2023-11-19T03:15:49;-5.43;72.06
80824;SHT35;70538;59.122;37.876;2023-11-19T03:18:16;-5.42;71.98
80824;SHT35;70538;59.122;37.876;2023-11-19T03:20:43;-5.42;72.13
80824;SHT35;70538;59.122;37.876;2023-11-19T03:23:10;-5.42;72.16
80824;SHT35;70538;59.122;37.876;2023-11-19T03:25:38;-5.39;72.11
80824;SHT35;70538;59.122;37.876;2023-11-19T03:28:05;-5.33;71.93
80824;SHT35;70538;59.122;37.876;2023-11-19T03:30:33;-5.30;71.91
80824;SHT35;70538;59.122;37.876;2023-11-19T03:33:01;-5.30;71.83
80824;SHT35;70538;59.122;37.876;2023-11-19T03:35:30;-5.32;71.98
80824;SHT35;70538;59.122;37.876;2023-11-19T03:37:57;-5.29;71.90
80824;SHT35;70538;59.122;37.876;2023-11-19T03:40:24;-5.27;71.65
80824;SHT35;70538;59.122;37.876;2023-11-19T03:42:52;-5.30;71.61
80824;SHT35;70538;59.122;37.876;2023-11-19T03:45:19;-5.27;71.84
80824;SHT35;70538;59.122;37.876;2023-11-19T03:47:47;-5.26;71.90
80824;SHT35;70538;59.122;37.876;2023-11-19T03:50:17;-5.25;71.87
80824;SHT35;70538;59.122;37.876;2023-11-19T03:52:47;-5.27;71.97
80824;SHT35;70538;59.122;37.876;2023-11-19T03:55:15;-5.22;72.09
80824;SHT35;70538;59.122;37.876;2023-11-19T03:57:42;-5.17;71.94
80824;SHT35;70538;59.122;37.876;2023-11-19T04:00:10;-5.19;71.46
80824;SHT35;70538;59.122;37.876;2023-11-19T04:02:38;-5.17;71.35
80824;SHT35;70538;59.122;37.876;2023-11-19T04:05:06;-5.13;71.47
80824;SHT35;70538;59.122;37.876;2023-11-19T04:07:33;-5.15;71.56
80824;SHT35;70538;59.122;37.876;2023-11-19T04:10:01;-5.11;71.53
80824;SHT35;70538;59.122;37.876;2023-11-19T04:12:29;-5.11;71.38
80824;SHT35;70538;59.122;37.876;2023-11-19T04:14:56;-5.11;71.32
80824;SHT35;70538;59.122;37.876;2023-11-19T04:17:27;-5.09;71.25
80824;SHT35;70538;59.122;37.876;2023-11-19T04:19:55;-5.09;71.22
80824;SHT35;70538;59.122;37.876;2023-11-19T04:22:22;-5.13;71.32
80824;SHT35;70538;59.122;37.876;2023-11-19T04:24:50;-5.13;71.31
80824;SHT35;70538;59.122;37.876;2023-11-19T04:27:17;-5.16;71.42
80824;SHT35;70538;59.122;37.876;2023-11-19T04:29:44;-5.15;71.40
80824;SHT35;70538;59.122;37.876;2023-11-19T04:32:14;-5.16;71.25
80824;SHT35;70538;59.122;37.876;2023-11-19T04:34:41;-5.12;71.09
80824;SHT35;70538;59.122;37.876;2023-11-19T04:37:08;-5.12;71.06
80824;SHT35;70538;59.122;37.876;2023-11-19T04:39:40;-5.12;71.06
80824;SHT35;70538;59.122;37.876;2023-11-19T04:42:07;-5.09;71.10
80824;SHT35;70538;59.122;37.876;2023-11-19T04:44:34;-5.08;71.02
80824;SHT35;70538;59.122;37.876;2023-11-19T04:47:02;-5.05;71.10
80824;SHT35;70538;59.122;37.876;2023-11-19T04:49:29;-5.01;71.06
80824;SHT35;70538;59.122;37.876;2023-11-19T04:51:57;-4.98;71.01
80824;SHT35;70538;59.122;37.876;2023-11-19T04:54:25;-4.99;70.93
80824;SHT35;70538;59.122;37.876;2023-11-19T04:56:52;-4.98;71.00
80824;SHT35;70538;59.122;37.876;2023-11-19T04:59:19;-5.01;70.98
80824;SHT35;70538;59.122;37.876;2023-11-19T05:01:47;-5.04;71.11
80824;SHT35;70538;59.122;37.876;2023-11-19T05:04:15;-5.04;71.20
80824;SHT35;70538;59.122;37.876;2023-11-19T05:06:42;-5.04;71.04
80824;SHT35;70538;59.122;37.876;2023-11-19T05:09:10;-5.02;70.83
80824;SHT35;70538;59.122;37.876;2023-11-19T05:11:40;-5.01;70.67
80824;SHT35;70538;59.122;37.876;2023-11-19T05:14:10;-4.99;70.65
80824;SHT35;70538;59.122;37.876;2023-11-19T05:16:40;-5.02;70.62
80824;SHT35;70538;59.122;37.876;2023-11-19T05:19:08;-5.02;70.80
80824;SHT35;70538;59.122;37.876;2023-11-19T05:21:36;-5.01;70.52
80824;SHT35;70538;59.122;37.876;2023-11-19T05:24:03;-5.02;70.58
80824;SHT35;70538;59.122;37.876;2023-11-19T05:26:31;-5.01;70.77
80824;SHT35;70538;59.122;37.876;2023-11-19T05:28:59;-4.95;70.77
80824;SHT35;70538;59.122;37.876;2023-11-19T05:31:26;-4.95;70.67
80824;SHT35;70538;59.122;37.876;2023-11-19T05:33:53;-4.91;70.67
80824;SHT35;70538;59.122;37.876;2023-11-19T05:36:23;-4.89;70.55
80824;SHT35;70538;59.122;37.876;2023-11-19T05:38:53;-4.91;70.46
80824;SHT35;70538;59.122;37.876;2023-11-19T05:41:20;-4.91;70.51
80824;SHT35;70538;59.122;37.876;2023-11-19T05:43:47;-4.89;70.54
80824;SHT35;70538;59.122;37.876;2023-11-19T05:46:15;-4.87;70.55
80824;SHT35;70538;59.122;37.876;2023-11-19T05:48:46;-4.81;70.25
80824;SHT35;70538;59.122;37.876;2023-11-19T05:51:15;-4.80;69.99
80824;SHT35;70538;59.122;37.876;2023-11-19T05:53:43;-4.80;70.01
80824;SHT35;70538;59.122;37.876;2023-11-19T05:56:13;-4.76;69.97
80824;SHT35;70538;59.122;37.876;2023-11-19T05:58:43;-4.71;69.93
80824;SHT35;70538;59.122;37.876;2023-11-19T06:01:12;-4.70;69.57
80824;SHT35;70538;59.122;37.876;2023-11-19T06:03:39;-4.68;69.47
80824;SHT35;70538;59.122;37.876;2023-11-19T06:06:07;-4.64;69.55
80824;SHT35;70538;59.122;37.876;2023-11-19T06:08:34;-4.67;69.66
80824;SHT35;70538;59.122;37.876;2023-11-19T06:11:02;-4.63;69.60
80824;SHT35;70538;59.122;37.876;2023-11-19T06:13:29;-4.61;69.73
80824;SHT35;70538;59.122;37.876;2023-11-19T06:15:58;-4.60;69.57
80824;SHT35;70538;59.122;37.876;2023-11-19T06:18:26;-4.59;69.14
80824;SHT35;70538;59.122;37.876;2023-11-19T06:20:53;-4.57;69.05
80824;SHT35;70538;59.122;37.876;2023-11-19T06:23:20;-4.56;68.78
80824;SHT35;70538;59.122;37.876;2023-11-19T06:25:48;-4.60;68.96
80824;SHT35;70538;59.122;37.876;2023-11-19T06:28:16;-4.52;68.99
80824;SHT35;70538;59.122;37.876;2023-11-19T06:30:43;-4.49;68.96
80824;SHT35;70538;59.122;37.876;2023-11-19T06:33:15;-4.45;68.94
80824;SHT35;70538;59.122;37.876;2023-11-19T06:35:42;-4.42;68.91
80824;SHT35;70538;59.122;37.876;2023-11-19T06:38:10;-4.39;68.88
80824;SHT35;70538;59.122;37.876;2023-11-19T06:40:37;-4.39;68.34
80824;SHT35;70538;59.122;37.876;2023-11-19T06:43:05;-4.42;68.27
80824;SHT35;70538;59.122;37.876;2023-11-19T06:45:35;-4.39;68.32
80824;SHT35;70538;59.122;37.876;2023-11-19T06:48:04;-4.39;67.86
80824;SHT35;70538;59.122;37.876;2023-11-19T06:50:32;-4.43;68.14
80824;SHT35;70538;59.122;37.876;2023-11-19T06:53:00;-4.42;68.10
80824;SHT35;70538;59.122;37.876;2023-11-19T06:55:27;-4.42;68.24
80824;SHT35;70538;59.122;37.876;2023-11-19T06:57:55;-4.36;68.13
80824;SHT35;70538;59.122;37.876;2023-11-19T07:00:22;-4.39;68.22
80824;SHT35;70538;59.122;37.876;2023-11-19T07:02:50;-4.36;67.74
80824;SHT35;70538;59.122;37.876;2023-11-19T07:05:18;-4.37;67.82
80824;SHT35;70538;59.122;37.876;2023-11-19T07:07:46;-4.33;67.78
80824;SHT35;70538;59.122;37.876;2023-11-19T07:10:14;-4.33;67.76
80824;SHT35;70538;59.122;37.876;2023-11-19T07:12:42;-4.28;68.02
80824;SHT35;70538;59.122;37.876;2023-11-19T07:15:12;-4.22;67.90
80824;SHT35;70538;59.122;37.876;2023-11-19T07:17:39;-4.12;67.56
80824;SHT35;70538;59.122;37.876;2023-11-19T07:20:07;-4.05;67.63
80824;SHT35;70538;59.122;37.876;2023-11-19T07:22:35;-3.98;67.41
80824;SHT35;70538;59.122;37.876;2023-11-19T07:25:05;-3.94;67.33
80824;SHT35;70538;59.122;37.876;2023-11-19T07:27:33;-3.95;67.41
80824;SHT35;70538;59.122;37.876;2023-11-19T07:30:00;-4.01;67.37
80824;SHT35;70538;59.122;37.876;2023-11-19T07:32:29;-4.04;67.44
80824;SHT35;70538;59.122;37.876;2023-11-19T07:34:57;-4.08;67.46
80824;SHT35;70538;59.122;37.876;2023-11-19T07:37:25;-4.05;67.58
80824;SHT35;70538;59.122;37.876;2023-11-19T07:39:52;-4.02;67.21
80824;SHT35;70538;59.122;37.876;2023-11-19T07:42:20;-4.08;67.19
80824;SHT35;70538;59.122;37.876;2023-11-19T07:44:48;-4.06;67.32
80824;SHT35;70538;59.122;37.876;2023-11-19T07:47:15;-4.11;67.23
80824;SHT35;70538;59.122;37.876;2023-11-19T07:49:42;-4.12;67.27
80824;SHT35;70538;59.122;37.876;2023-11-19T07:52:13;-4.09;67.49
80824;SHT35;70538;59.122;37.876;2023-11-19T07:54:43;-4.06;67.38
80824;SHT35;70538;59.122;37.876;2023-11-19T07:57:11;-4.01;67.53
80824;SHT35;70538;59.122;37.876;2023-11-19T07:59:38;-3.91;67.31
80824;SHT35;70538;59.122;37.876;2023-11-19T08:02:06;-3.80;67.07
80824;SHT35;70538;59.122;37.876;2023-11-19T08:04:34;-3.77;66.88
80824;SHT35;70538;59.122;37.876;2023-11-19T08:07:01;-3.66;66.81
80824;SHT35;70538;59.122;37.876;2023-11-19T08:09:29;-3.57;66.85
80824;SHT35;70538;59.122;37.876;2023-11-19T08:11:56;-3.47;66.56
80824;SHT35;70538;59.122;37.876;2023-11-19T08:14:23;-3.34;66.54
80824;SHT35;70538;59.122;37.876;2023-11-19T08:16:51;-3.13;66.49
80824;SHT35;70538;59.122;37.876;2023-11-19T08:19:18;-2.94;65.72
80824;SHT35;70538;59.122;37.876;2023-11-19T08:21:46;-2.81;65.24
80824;SHT35;70538;59.122;37.876;2023-11-19T08:24:16;-2.73;65.28
80824;SHT35;70538;59.122;37.876;2023-11-19T08:26:43;-2.63;64.47
80824;SHT35;70538;59.122;37.876;2023-11-19T08:29:28;-2.60;64.59
80824;SHT35;70538;59.122;37.876;2023-11-19T08:31:56;-2.56;64.23
80824;SHT35;70538;59.122;37.876;2023-11-19T08:34:24;-2.52;64.48
80824;SHT35;70538;59.122;37.876;2023-11-19T08:36:51;-2.45;64.12
80824;SHT35;70538;59.122;37.876;2023-11-19T08:39:20;-2.31;64.38
80824;SHT35;70538;59.122;37.876;2023-11-19T08:41:51;-2.14;64.17
80824;SHT35;70538;59.122;37.876;2023-11-19T08:44:18;-2.01;63.55
80824;SHT35;70538;59.122;37.876;2023-11-19T08:46:47;-1.97;63.19
80824;SHT35;70538;59.122;37.876;2023-11-19T08:49:15;-1.95;62.72
80824;SHT35;70538;59.122;37.876;2023-11-19T08:51:42;-1.87;63.17
80824;SHT35;70538;59.122;37.876;2023-11-19T08:54:10;-1.71;62.72
80824;SHT35;70538;59.122;37.876;2023-11-19T08:56:38;-1.60;62.88
80824;SHT35;70538;59.122;37.876;2023-11-19T08:59:06;-1.36;62.36
80824;SHT35;70538;59.122;37.876;2023-11-19T09:01:33;-1.14;62.02
80824;SHT35;70538;59.122;37.876;2023-11-19T09:04:01;-1.07;60.35
80824;SHT35;70538;59.122;37.876;2023-11-19T09:06:28;-1.16;59.78
80824;SHT35;70538;59.122;37.876;2023-11-19T09:08:56;-1.19;60.68
80824;SHT35;70538;59.122;37.876;2023-11-19T09:11:27;-1.11;60.70
80824;SHT35;70538;59.122;37.876;2023-11-19T09:13:55;-1.07;60.07
80824;SHT35;70538;59.122;37.876;2023-11-19T09:16:22;-0.88;60.35
80824;SHT35;70538;59.122;37.876;2023-11-19T09:18:50;-0.70;60.09
80824;SHT35;70538;59.122;37.876;2023-11-19T09:21:17;-0.43;59.71
80824;SHT35;70538;59.122;37.876;2023-11-19T09:23:44;-0.11;59.10
80824;SHT35;70538;59.122;37.876;2023-11-19T09:26:14;0.02;57.07
80824;SHT35;70538;59.122;37.876;2023-11-19T09:28:41;0.06;57.23
80824;SHT35;70538;59.122;37.876;2023-11-19T09:31:15;0.16;56.40
80824;SHT35;70538;59.122;37.876;2023-11-19T09:33:43;0.27;55.22
80824;SHT35;70538;59.122;37.876;2023-11-19T09:36:14;0.33;55.34
80824;SHT35;70538;59.122;37.876;2023-11-19T09:38:43;0.50;55.14
80824;SHT35;70538;59.122;37.876;2023-11-19T09:41:11;0.92;54.67
80824;SHT35;70538;59.122;37.876;2023-11-19T09:43:42;1.26;53.08
80824;SHT35;70538;59.122;37.876;2023-11-19T09:46:12;1.41;52.44
80824;SHT35;70538;59.122;37.876;2023-11-19T09:48:41;1.48;52.55
80824;SHT35;70538;59.122;37.876;2023-11-19T09:51:10;1.66;52.61
80824;SHT35;70538;59.122;37.876;2023-11-19T09:53:37;1.76;51.24
80824;SHT35;70538;59.122;37.876;2023-11-19T09:56:05;1.81;50.37
80824;SHT35;70538;59.122;37.876;2023-11-19T09:58:33;1.89;51.22
80824;SHT35;70538;59.122;37.876;2023-11-19T10:01:00;2.05;50.22
80824;SHT35;70538;59.122;37.876;2023-11-19T10:03:33;2.11;50.01
80824;SHT35;70538;59.122;37.876;2023-11-19T10:06:07;2.14;48.80
80824;SHT35;70538;59.122;37.876;2023-11-19T10:08:38;1.93;48.04
80824;SHT35;70538;59.122;37.876;2023-11-19T10:11:10;1.69;49.00
80824;SHT35;70538;59.122;37.876;2023-11-19T10:13:39;1.64;49.78
80824;SHT35;70538;59.122;37.876;2023-11-19T10:16:08;1.48;49.49
80824;SHT35;70538;59.122;37.876;2023-11-19T10:18:36;1.28;49.49
80824;SHT35;70538;59.122;37.876;2023-11-19T10:21:06;0.99;50.12
80824;SHT35;70538;59.122;37.876;2023-11-19T10:23:56;0.85;50.46
80824;SHT35;70538;59.122;37.876;2023-11-19T10:26:24;0.58;50.77
80824;SHT35;70538;59.122;37.876;2023-11-19T10:28:51;0.38;50.72
80824;SHT35;70538;59.122;37.876;2023-11-19T10:31:19;0.17;51.09
80824;SHT35;70538;59.122;37.876;2023-11-19T10:33:52;0.00;51.53
80824;SHT35;70538;59.122;37.876;2023-11-19T10:36:20;-0.07;51.86
80824;SHT35;70538;59.122;37.876;2023-11-19T10:38:53;-0.11;52.05
80824;SHT35;70538;59.122;37.876;2023-11-19T10:41:30;-0.21;51.74
80824;SHT35;70538;59.122;37.876;2023-11-19T10:43:58;-0.41;51.98
80824;SHT35;70538;59.122;37.876;2023-11-19T10:46:38;-0.60;52.60
80824;SHT35;70538;59.122;37.876;2023-11-19T10:49:07;-0.67;52.97
80824;SHT35;70538;59.122;37.876;2023-11-19T10:51:35;-0.79;53.14
80824;SHT35;70538;59.122;37.876;2023-11-19T10:54:03;-0.97;53.07
80824;SHT35;70538;59.122;37.876;2023-11-19T10:56:33;-1.14;53.43
80824;SHT35;70538;59.122;37.876;2023-11-19T10:59:01;-1.25;53.81
80824;SHT35;70538;59.122;37.876;2023-11-19T11:01:50;-1.32;54.16
80824;SHT35;70538;59.122;37.876;2023-11-19T11:04:20;-1.45;54.06
80824;SHT35;70538;59.122;37.876;2023-11-19T11:06:49;-1.49;54.46
80824;SHT35;70538;59.122;37.876;2023-11-19T11:09:17;-1.55;54.37
80824;SHT35;70538;59.122;37.876;2023-11-19T11:11:46;-1.63;54.36
80824;SHT35;70538;59.122;37.876;2023-11-19T11:14:14;-1.79;54.47
80824;SHT35;70538;59.122;37.876;2023-11-19T11:16:43;-1.90;54.87
80824;SHT35;70538;59.122;37.876;2023-11-19T11:19:11;-2.02;55.23
80824;SHT35;70538;59.122;37.876;2023-11-19T11:21:40;-2.12;55.63
80824;SHT35;70538;59.122;37.876;2023-11-19T11:27:05;-2.31;56.27
80824;SHT35;70538;59.122;37.876;2023-11-19T11:32:14;-2.43;56.57
80824;SHT35;70538;59.122;37.876;2023-11-19T11:37:18;-2.71;57.09
80824;SHT35;70538;59.122;37.876;2023-11-19T11:39:47;-2.83;57.57
80824;SHT35;70538;59.122;37.876;2023-11-19T11:45:34;-2.91;58.13
80824;SHT35;70538;59.122;37.876;2023-11-19T11:55:28;-2.83;58.13
80824;SHT35;70538;59.122;37.876;2023-11-19T11:57:55;-2.90;58.38
80824;SHT35;70538;59.122;37.876;2023-11-19T12:00:26;-2.98;58.59
80824;SHT35;70538;59.122;37.876;2023-11-19T12:02:55;-3.04;58.84
80824;SHT35;70538;59.122;37.876;2023-11-19T12:05:23;-3.12;59.21
80824;SHT35;70538;59.122;37.876;2023-11-19T12:07:58;-3.19;59.54
80824;SHT35;70538;59.122;37.876;2023-11-19T12:10:31;-3.29;59.97
80824;SHT35;70538;59.122;37.876;2023-11-19T12:12:59;-3.35;60.26
80824;SHT35;70538;59.122;37.876;2023-11-19T12:15:28;-3.40;60.52
80824;SHT35;70538;59.122;37.876;2023-11-19T12:17:55;-3.42;60.65
80824;SHT35;70538;59.122;37.876;2023-11-19T12:20:24;-3.39;60.66
80824;SHT35;70538;59.122;37.876;2023-11-19T12:22:54;-3.42;60.67
80824;SHT35;70538;59.122;37.876;2023-11-19T12:25:22;-3.47;60.75
80824;SHT35;70538;59.122;37.876;2023-11-19T12:27:51;-3.55;60.90
80824;SHT35;70538;59.122;37.876;2023-11-19T12:30:23;-3.66;61.07
80824;SHT35;70538;59.122;37.876;2023-11-19T12:32:54;-3.73;61.25
80824;SHT35;70538;59.122;37.876;2023-11-19T12:35:22;-3.77;61.37
80824;SHT35;70538;59.122;37.876;2023-11-19T12:37:51;-3.75;61.35
80824;SHT35;70538;59.122;37.876;2023-11-19T12:40:23;-3.74;61.28
80824;SHT35;70538;59.122;37.876;2023-11-19T12:42:52;-3.74;61.13
80824;SHT35;70538;59.122;37.876;2023-11-19T12:45:23;-3.75;61.09
80824;SHT35;70538;59.122;37.876;2023-11-19T12:48:06;-3.80;61.11
80824;SHT35;70538;59.122;37.876;2023-11-19T12:53:23;-3.87;61.43
80824;SHT35;70538;59.122;37.876;2023-11-19T12:55:51;-3.90;61.55
80824;SHT35;70538;59.122;37.876;2023-11-19T12:58:28;-3.88;61.63
80824;SHT35;70538;59.122;37.876;2023-11-19T13:01:38;-3.84;61.75
80824;SHT35;70538;59.122;37.876;2023-11-19T13:03:47;-3.78;61.62
80824;SHT35;70538;59.122;37.876;2023-11-19T13:06:19;-3.78;61.92
80824;SHT35;70538;59.122;37.876;2023-11-19T13:08:51;-3.77;61.78
80824;SHT35;70538;59.122;37.876;2023-11-19T13:11:31;-3.78;62.01
80824;SHT35;70538;59.122;37.876;2023-11-19T13:14:00;-3.77;62.12
80824;SHT35;70538;59.122;37.876;2023-11-19T13:16:28;-3.77;62.39
80824;SHT35;70538;59.122;37.876;2023-11-19T13:18:56;-3.74;62.33
80824;SHT35;70538;59.122;37.876;2023-11-19T13:21:24;-3.74;62.41
80824;SHT35;70538;59.122;37.876;2023-11-19T13:23:52;-3.68;62.67
80824;SHT35;70538;59.122;37.876;2023-11-19T13:26:19;-3.62;62.61
80824;SHT35;70538;59.122;37.876;2023-11-19T13:28:46;-3.56;62.31
80824;SHT35;70538;59.122;37.876;2023-11-19T13:31:14;-3.60;62.34
80824;SHT35;70538;59.122;37.876;2023-11-19T13:33:41;-3.63;62.46
80824;SHT35;70538;59.122;37.876;2023-11-19T13:36:09;-3.67;62.47
80824;SHT35;70538;59.122;37.876;2023-11-19T13:38:42;-3.73;62.67
80824;SHT35;70538;59.122;37.876;2023-11-19T13:41:12;-3.75;62.85
80824;SHT35;70538;59.122;37.876;2023-11-19T13:43:40;-3.87;63.18
80824;SHT35;70538;59.122;37.876;2023-11-19T13:46:08;-3.84;63.18
80824;SHT35;70538;59.122;37.876;2023-11-19T13:48:39;-3.83;63.19
80824;SHT35;70538;59.122;37.876;2023-11-19T13:51:06;-3.77;63.06
80824;SHT35;70538;59.122;37.876;2023-11-19T13:53:34;-3.75;63.11
80824;SHT35;70538;59.122;37.876;2023-11-19T13:56:04;-3.73;63.28
80824;SHT35;70538;59.122;37.876;2023-11-19T13:58:32;-3.66;63.07
80824;SHT35;70538;59.122;37.876;2023-11-19T14:01:00;-3.62;62.86
80824;SHT35;70538;59.122;37.876;2023-11-19T14:03:28;-3.49;62.68
80824;SHT35;70538;59.122;37.876;2023-11-19T14:05:56;-3.49;62.47
80824;SHT35;70538;59.122;37.876;2023-11-19T14:08:25;-3.50;62.44
80824;SHT35;70538;59.122;37.876;2023-11-19T14:10:53;-3.49;62.51
80824;SHT35;70538;59.122;37.876;2023-11-19T14:13:23;-3.47;62.45
80824;SHT35;70538;59.122;37.876;2023-11-19T14:15:53;-3.43;62.36
80824;SHT35;70538;59.122;37.876;2023-11-19T14:18:21;-3.38;62.16
80824;SHT35;70538;59.122;37.876;2023-11-19T14:20:48;-3.36;62.23
80824;SHT35;70538;59.122;37.876;2023-11-19T14:23:15;-3.34;62.23
80824;SHT35;70538;59.122;37.876;2023-11-19T14:25:43;-3.32;61.95
80824;SHT35;70538;59.122;37.876;2023-11-19T14:28:10;-3.46;61.91
80824;SHT35;70538;59.122;37.876;2023-11-19T14:30:38;-3.57;62.21
80824;SHT35;70538;59.122;37.876;2023-11-19T14:33:05;-3.73;62.48
80824;SHT35;70538;59.122;37.876;2023-11-19T14:35:33;-3.80;62.83
80824;SHT35;70538;59.122;37.876;2023-11-19T14:38:01;-3.84;62.92
80824;SHT35;70538;59.122;37.876;2023-11-19T14:40:32;-3.87;63.13
80824;SHT35;70538;59.122;37.876;2023-11-19T14:43:02;-3.87;63.16
80824;SHT35;70538;59.122;37.876;2023-11-19T14:45:30;-3.92;63.12
80824;SHT35;70538;59.122;37.876;2023-11-19T14:48:08;-3.99;63.25
80824;SHT35;70538;59.122;37.876;2023-11-19T14:50:37;-4.06;63.28
80824;SHT35;70538;59.122;37.876;2023-11-19T14:53:05;-4.12;63.35
80824;SHT35;70538;59.122;37.876;2023-11-19T14:55:33;-4.13;63.34
80824;SHT35;70538;59.122;37.876;2023-11-19T14:58:00;-4.18;63.38
80824;SHT35;70538;59.122;37.876;2023-11-19T15:00:36;-4.21;63.33
80824;SHT35;70538;59.122;37.876;2023-11-19T15:03:04;-4.22;63.40
80824;SHT35;70538;59.122;37.876;2023-11-19T15:05:32;-4.21;63.26
80824;SHT35;70538;59.122;37.876;2023-11-19T15:07:59;-4.22;63.43
80824;SHT35;70538;59.122;37.876;2023-11-19T15:10:27;-4.18;63.20
80824;SHT35;70538;59.122;37.876;2023-11-19T15:12:55;-4.11;63.06
80824;SHT35;70538;59.122;37.876;2023-11-19T15:15:22;-4.08;63.04
80824;SHT35;70538;59.122;37.876;2023-11-19T15:17:53;-4.09;62.98
80824;SHT35;70538;59.122;37.876;2023-11-19T15:20:20;-4.08;62.91
80824;SHT35;70538;59.122;37.876;2023-11-19T15:22:48;-4.13;63.05
80824;SHT35;70538;59.122;37.876;2023-11-19T15:25:16;-4.11;62.99
80824;SHT35;70538;59.122;37.876;2023-11-19T15:27:44;-4.15;63.00
80824;SHT35;70538;59.122;37.876;2023-11-19T15:30:11;-4.19;63.09
80824;SHT35;70538;59.122;37.876;2023-11-19T15:32:39;-4.15;63.10
80824;SHT35;70538;59.122;37.876;2023-11-19T15:35:09;-4.15;63.11
80824;SHT35;70538;59.122;37.876;2023-11-19T15:37:40;-4.13;62.92
80824;SHT35;70538;59.122;37.876;2023-11-19T15:40:11;-4.13;62.96
80824;SHT35;70538;59.122;37.876;2023-11-19T15:42:40;-4.11;62.79
80824;SHT35;70538;59.122;37.876;2023-11-19T15:45:08;-4.16;62.72
80824;SHT35;70538;59.122;37.876;2023-11-19T15:47:36;-4.23;62.77
80824;SHT35;70538;59.122;37.876;2023-11-19T15:50:04;-4.28;62.93
80824;SHT35;70538;59.122;37.876;2023-11-19T15:52:32;-4.30;63.05